Terminal Aerodrome Forecast
Issued by NWS

Home | Current Version | Previous Version | Text Only | Print | Product List | Glossary On
Versions: 1 2 3 4 5 6 7 8 9 10 11 12
505
FTUS44 KCRP 240537
TAFLRD
TAF
KLRD 240537Z 2406/2506 11012KT P6SM SCT250
     FM240800 14008KT P6SM SCT015
      TEMPO 2410/2414 BKN015
     FM241400 14007KT P6SM BKN030
     FM241800 11012KT P6SM SCT050
     FM250100 12014KT P6SM SCT030 SCT250=

USA.gov is the U.S. government's official web portal to all federal, state and local government web resources and services.